createdAt,value
2019-01-21T00:01:04.436Z,-4.52
2019-01-21T00:04:09.669Z,-4.49
2019-01-21T00:07:14.929Z,-4.46
2019-01-21T00:10:20.124Z,-4.50
2019-01-21T00:13:25.286Z,-4.43
2019-01-21T00:16:30.435Z,-4.38
2019-01-21T00:19:36.572Z,-4.34
2019-01-21T00:22:41.690Z,-4.25
2019-01-21T00:25:46.882Z,-4.24
2019-01-21T00:28:52.066Z,-4.21
2019-01-21T00:31:57.249Z,-4.20
2019-01-21T00:35:02.399Z,-4.22
2019-01-21T00:38:07.626Z,-4.21
2019-01-21T00:41:12.781Z,-4.26
2019-01-21T00:44:19.032Z,-4.34
2019-01-21T00:47:29.888Z,-4.30
2019-01-21T00:50:31.019Z,-4.30
2019-01-21T00:53:36.228Z,-4.38
2019-01-21T00:56:41.342Z,-4.24
2019-01-21T00:59:46.477Z,-4.28
2019-01-21T01:02:51.587Z,-4.24
2019-01-21T01:05:56.770Z,-4.24
2019-01-21T01:09:01.873Z,-4.13
2019-01-21T01:12:08.901Z,-4.15
2019-01-21T01:15:15.053Z,-4.13
2019-01-21T01:18:21.837Z,-4.04
2019-01-21T01:21:26.925Z,-4.08
2019-01-21T01:24:32.150Z,-4.10
2019-01-21T01:27:37.482Z,-4.05
2019-01-21T01:30:42.608Z,-3.82
2019-01-21T01:33:47.754Z,-3.87
2019-01-21T01:36:52.865Z,-3.93
2019-01-21T01:39:57.998Z,-3.78
2019-01-21T01:43:03.171Z,-3.75
2019-01-21T01:46:08.311Z,-3.75
2019-01-21T01:49:13.593Z,-3.74
2019-01-21T01:52:18.673Z,-3.74
2019-01-21T01:55:25.243Z,-3.73
2019-01-21T01:58:30.361Z,-3.74
2019-01-21T02:01:35.500Z,-3.62
2019-01-21T02:04:40.654Z,-3.65
2019-01-21T02:07:46.034Z,-3.46
2019-01-21T02:10:51.279Z,-3.50
2019-01-21T02:13:56.412Z,-3.51
2019-01-21T02:17:01.567Z,-3.52
2019-01-21T02:20:09.267Z,-3.53
2019-01-21T02:23:17.859Z,-3.50
2019-01-21T02:26:25.729Z,-3.45
2019-01-21T02:30:26.812Z,-3.45
2019-01-21T02:34:16.693Z,-3.51
2019-01-21T02:37:52.533Z,-3.54
2019-01-21T02:41:39.102Z,-3.58
2019-01-21T02:45:31.695Z,-3.49
2019-01-21T02:48:59.470Z,-3.55
2019-01-21T02:52:44.281Z,-3.53
2019-01-21T02:56:03.209Z,-3.56
2019-01-21T03:00:10.637Z,-3.54
2019-01-21T03:03:53.120Z,-3.43
2019-01-21T03:07:08.307Z,-3.44
2019-01-21T03:10:35.002Z,-3.43
2019-01-21T03:14:24.089Z,-3.46
2019-01-21T03:18:08.073Z,-3.39
2019-01-21T03:21:45.742Z,-3.39
2019-01-21T03:25:20.775Z,-3.40
2019-01-21T03:29:10.003Z,-3.45
2019-01-21T03:32:55.662Z,-3.50
2019-01-21T03:36:41.821Z,-3.53
2019-01-21T03:40:12.881Z,-3.49
2019-01-21T03:43:57.486Z,-3.58
2019-01-21T03:47:26.318Z,-3.60
2019-01-21T03:51:06.631Z,-3.77
2019-01-21T03:54:32.597Z,-3.92
2019-01-21T03:58:19.161Z,-4.22
2019-01-21T04:01:47.371Z,-4.17
2019-01-21T04:05:28.022Z,-4.44
2019-01-21T04:09:09.044Z,-4.58
2019-01-21T04:12:50.844Z,-4.67
2019-01-21T04:16:18.510Z,-4.92
2019-01-21T04:19:53.081Z,-5.03
2019-01-21T04:23:35.102Z,-5.11
2019-01-21T04:27:09.403Z,-5.01
2019-01-21T04:30:54.453Z,-5.19
2019-01-21T04:34:24.202Z,-5.40
2019-01-21T04:38:00.644Z,-5.58
2019-01-21T04:41:40.357Z,-5.80
2019-01-21T04:45:00.426Z,-6.06
2019-01-21T04:48:46.358Z,-6.26
2019-01-21T04:52:59.580Z,-6.49
2019-01-21T04:56:44.712Z,-6.41
2019-01-21T05:00:38.713Z,-6.35
2019-01-21T05:04:19.889Z,-6.33
2019-01-21T05:08:12.043Z,-6.40
2019-01-21T05:11:52.861Z,-6.45
2019-01-21T05:15:29.051Z,-6.68
2019-01-21T05:19:21.277Z,-6.61
2019-01-21T05:23:01.998Z,-6.67
2019-01-21T05:26:19.571Z,-6.59
2019-01-21T05:30:11.100Z,-6.63
2019-01-21T05:33:44.237Z,-6.65
2019-01-21T05:37:30.254Z,-6.70
2019-01-21T05:41:05.686Z,-6.71
2019-01-21T05:44:35.402Z,-6.72
2019-01-21T05:48:17.371Z,-6.76
2019-01-21T05:51:59.585Z,-6.68
2019-01-21T05:55:56.507Z,-6.63
2019-01-21T05:59:38.785Z,-6.79
2019-01-21T06:03:27.067Z,-6.78
2019-01-21T06:06:43.858Z,-6.76
2019-01-21T06:10:16.736Z,-6.84
2019-01-21T06:14:05.199Z,-6.91
2019-01-21T06:17:49.687Z,-7.01
2019-01-21T06:21:31.775Z,-7.05
2019-01-21T06:24:51.080Z,-7.03
2019-01-21T06:28:25.690Z,-7.11
2019-01-21T06:31:57.259Z,-7.31
2019-01-21T06:35:46.562Z,-7.34
2019-01-21T06:39:12.353Z,-7.28
2019-01-21T06:43:10.893Z,-7.18
2019-01-21T06:46:47.306Z,-7.09
2019-01-21T06:50:28.631Z,-7.04
2019-01-21T06:53:58.433Z,-6.94
2019-01-21T06:57:37.502Z,-7.16
2019-01-21T07:01:15.550Z,-7.13
2019-01-21T07:04:49.319Z,-6.82
2019-01-21T07:08:30.343Z,-6.71
2019-01-21T07:12:06.578Z,-6.61
2019-01-21T07:15:52.564Z,-6.40
2019-01-21T07:19:30.753Z,-6.22
2019-01-21T07:23:10.130Z,-6.34
2019-01-21T07:26:52.039Z,-6.37
2019-01-21T07:30:41.068Z,-6.14
2019-01-21T07:34:05.819Z,-6.07
2019-01-21T07:37:20.517Z,-6.01
2019-01-21T07:41:18.258Z,-6.05
2019-01-21T07:44:59.711Z,-5.77
2019-01-21T07:48:44.010Z,-5.73
2019-01-21T07:52:39.010Z,-5.71
2019-01-21T07:56:30.062Z,-5.56
2019-01-21T08:00:04.621Z,-5.50
2019-01-21T08:03:47.063Z,-5.47
2019-01-21T08:07:02.702Z,-5.36
2019-01-21T08:11:04.044Z,-5.26
2019-01-21T08:14:34.661Z,-5.19
2019-01-21T08:18:17.827Z,-5.07
2019-01-21T08:21:39.906Z,-4.85
2019-01-21T08:25:21.435Z,-4.81
2019-01-21T08:28:54.722Z,-4.62
2019-01-21T08:32:50.030Z,-4.67
2019-01-21T08:36:15.638Z,-4.65
2019-01-21T08:39:57.345Z,-4.52
2019-01-21T08:43:43.884Z,-4.48
2019-01-21T08:47:18.010Z,-4.43
2019-01-21T08:51:06.145Z,-4.27
2019-01-21T08:54:40.061Z,-4.29
2019-01-21T08:58:06.638Z,-4.02
2019-01-21T09:01:45.830Z,-4.04
2019-01-21T09:05:16.650Z,-4.04
2019-01-21T09:08:56.617Z,-3.83
2019-01-21T09:12:34.535Z,-3.89
2019-01-21T09:16:19.455Z,-3.97
2019-01-21T09:20:10.767Z,-3.66
2019-01-21T09:24:01.045Z,-3.54
2019-01-21T09:27:34.187Z,-3.18
2019-01-21T09:31:26.444Z,-2.87
2019-01-21T09:35:21.901Z,-2.44
2019-01-21T09:39:05.683Z,-2.80
2019-01-21T09:42:24.291Z,-2.42
2019-01-21T09:46:14.858Z,-2.57
2019-01-21T09:49:18.424Z,-2.66
2019-01-21T09:52:25.056Z,-2.72
2019-01-21T09:55:30.527Z,-3.03
2019-01-21T09:58:35.945Z,-2.56
2019-01-21T10:01:41.098Z,-1.97
2019-01-21T10:05:05.944Z,-1.95
2019-01-21T10:08:23.189Z,-1.32
2019-01-21T10:12:21.638Z,-1.16
2019-01-21T10:15:35.817Z,-1.20
2019-01-21T10:19:13.167Z,-1.13
2019-01-21T10:22:43.542Z,-1.03
2019-01-21T10:26:11.338Z,-1.52
2019-01-21T10:29:56.895Z,-1.51
2019-01-21T10:33:48.827Z,-1.15
2019-01-21T10:37:40.989Z,-1.18
2019-01-21T10:41:20.068Z,-1.19
2019-01-21T10:45:06.508Z,-0.88
2019-01-21T10:48:28.757Z,-1.39
2019-01-21T10:52:16.861Z,-1.33
2019-01-21T10:56:12.087Z,-0.71
2019-01-21T11:00:07.034Z,-0.71
2019-01-21T11:03:24.613Z,-0.28
2019-01-21T11:07:06.733Z,-0.23
2019-01-21T11:10:53.328Z,-0.50
2019-01-21T11:14:35.332Z,-0.66
2019-01-21T11:17:58.346Z,-0.28
2019-01-21T11:21:28.118Z,-0.15
2019-01-21T11:25:18.301Z,-0.37
2019-01-21T11:28:49.073Z,-0.18
2019-01-21T11:32:25.143Z,-0.37
2019-01-21T11:36:08.398Z,-0.12
2019-01-21T11:40:05.013Z,-0.07
2019-01-21T11:44:12.206Z,0.21
2019-01-21T11:47:49.294Z,0.59
2019-01-21T11:51:50.568Z,0.50
2019-01-21T11:55:28.553Z,0.62
2019-01-21T11:59:29.565Z,0.64
2019-01-21T12:03:23.491Z,0.58
2019-01-21T12:06:42.556Z,0.49
2019-01-21T12:10:10.216Z,1.01
2019-01-21T12:13:51.840Z,0.97
2019-01-21T12:17:20.972Z,0.88
2019-01-21T12:20:59.704Z,0.81
2019-01-21T12:24:31.320Z,0.91
2019-01-21T12:28:03.090Z,0.81
2019-01-21T12:31:31.056Z,1.07
2019-01-21T12:35:13.503Z,1.07
2019-01-21T12:38:53.373Z,1.05
2019-01-21T12:42:36.130Z,1.20
2019-01-21T12:46:12.279Z,1.04
2019-01-21T12:49:40.199Z,0.88
2019-01-21T12:53:04.765Z,0.84
2019-01-21T12:56:35.867Z,0.75
2019-01-21T13:00:00.677Z,1.13
2019-01-21T13:03:49.973Z,1.34
2019-01-21T13:07:48.367Z,1.01
2019-01-21T13:11:33.018Z,1.35
2019-01-21T13:15:11.561Z,1.24
2019-01-21T13:19:09.963Z,1.12
2019-01-21T13:22:41.232Z,0.86
2019-01-21T13:26:19.086Z,1.18
2019-01-21T13:30:00.628Z,1.36
2019-01-21T13:33:24.630Z,1.38
2019-01-21T13:37:10.959Z,1.59
2019-01-21T13:41:12.313Z,1.34
2019-01-21T13:44:49.611Z,1.14
2019-01-21T13:48:39.198Z,1.08
2019-01-21T13:52:08.248Z,1.29
2019-01-21T13:55:26.011Z,1.11
2019-01-21T13:59:07.579Z,1.05
2019-01-21T14:02:56.755Z,1.03
2019-01-21T14:06:33.468Z,1.17
2019-01-21T14:10:22.953Z,0.83
2019-01-21T14:13:52.950Z,0.93
2019-01-21T14:17:43.575Z,0.89
2019-01-21T14:21:35.606Z,1.03
2019-01-21T14:25:26.859Z,0.84
2019-01-21T14:29:06.092Z,0.95
2019-01-21T14:32:43.141Z,0.54
2019-01-21T14:36:29.216Z,0.21
2019-01-21T14:39:47.732Z,0.05
2019-01-21T14:43:15.020Z,-0.18
2019-01-21T14:46:49.751Z,-0.58
2019-01-21T14:50:17.837Z,-0.71
2019-01-21T14:53:49.101Z,-0.64
2019-01-21T14:57:23.852Z,-0.72
2019-01-21T15:00:59.100Z,-0.94
2019-01-21T15:04:48.020Z,-0.93
2019-01-21T15:08:02.519Z,-1.15
2019-01-21T15:11:34.390Z,-1.18
2019-01-21T15:15:22.414Z,-1.26
2019-01-21T15:18:48.152Z,-1.42
2019-01-21T15:22:34.555Z,-1.70
2019-01-21T15:26:03.515Z,-1.68
2019-01-21T15:29:43.448Z,-1.93
2019-01-21T15:33:44.192Z,-1.96
2019-01-21T15:37:18.455Z,-2.20
2019-01-21T15:41:03.417Z,-2.44
2019-01-21T15:44:30.581Z,-2.72
2019-01-21T15:48:18.405Z,-2.93
2019-01-21T15:52:07.552Z,-2.89
2019-01-21T15:56:02.051Z,-3.05
2019-01-21T15:59:35.594Z,-2.90
2019-01-21T16:03:12.899Z,-2.95
2019-01-21T16:06:49.460Z,-3.26
2019-01-21T16:10:38.992Z,-3.51
2019-01-21T16:14:00.977Z,-3.69
2019-01-21T16:17:33.166Z,-3.79
2019-01-21T16:21:31.681Z,-3.73
2019-01-21T16:24:44.728Z,-3.67
2019-01-21T16:28:49.511Z,-3.91
2019-01-21T16:32:09.309Z,-4.01
2019-01-21T16:35:59.931Z,-4.31
2019-01-21T16:39:38.533Z,-4.28
2019-01-21T16:42:43.785Z,-4.08
2019-01-21T16:45:48.952Z,-4.39
2019-01-21T16:48:54.079Z,-4.33
2019-01-21T16:51:59.311Z,-4.42
2019-01-21T16:55:04.762Z,-4.56
2019-01-21T16:58:09.925Z,-4.64
2019-01-21T17:01:15.077Z,-4.79
2019-01-21T17:04:20.329Z,-4.65
2019-01-21T17:07:25.552Z,-4.62
2019-01-21T17:10:30.706Z,-4.59
2019-01-21T17:13:35.886Z,-4.39
2019-01-21T17:16:41.048Z,-4.38
2019-01-21T17:19:46.212Z,-4.57
2019-01-21T17:22:51.408Z,-4.62
2019-01-21T17:25:56.499Z,-4.84
2019-01-21T17:29:01.670Z,-4.73
2019-01-21T17:32:06.986Z,-4.99
2019-01-21T17:35:12.986Z,-5.10
2019-01-21T17:38:18.129Z,-5.17
2019-01-21T17:41:23.479Z,-5.14
2019-01-21T17:44:28.726Z,-5.46
2019-01-21T17:47:33.890Z,-5.51
2019-01-21T17:50:39.003Z,-5.15
2019-01-21T17:53:44.251Z,-5.04
2019-01-21T17:56:49.459Z,-5.08
2019-01-21T17:59:54.782Z,-5.19
2019-01-21T18:02:59.969Z,-5.20
2019-01-21T18:06:05.568Z,-5.41
2019-01-21T18:09:11.100Z,-5.53
2019-01-21T18:12:16.394Z,-5.75
2019-01-21T18:15:21.536Z,-5.74
2019-01-21T18:18:26.828Z,-5.81
2019-01-21T18:21:32.066Z,-5.83
2019-01-21T18:24:38.377Z,-6.05
2019-01-21T18:27:43.516Z,-5.90
2019-01-21T18:30:48.750Z,-5.90
2019-01-21T18:33:53.913Z,-5.78
2019-01-21T18:36:59.430Z,-5.86
2019-01-21T18:40:05.077Z,-5.86
2019-01-21T18:43:10.399Z,-6.07
2019-01-21T18:46:15.653Z,-6.13
2019-01-21T18:49:22.904Z,-6.27
2019-01-21T18:52:27.701Z,-6.20
2019-01-21T18:55:32.933Z,-6.22
2019-01-21T18:58:38.146Z,-6.27
2019-01-21T19:01:43.371Z,-6.21
2019-01-21T19:04:48.603Z,-5.97
2019-01-21T19:07:53.851Z,-5.99
2019-01-21T19:10:59.066Z,-6.10
2019-01-21T19:14:04.999Z,-6.00
2019-01-21T19:17:10.178Z,-6.03
2019-01-21T19:20:16.194Z,-6.00
2019-01-21T19:23:21.385Z,-5.64
2019-01-21T19:26:26.610Z,-5.69
2019-01-21T19:29:31.838Z,-5.79
2019-01-21T19:32:37.065Z,-6.08
2019-01-21T19:35:42.264Z,-6.19
2019-01-21T19:38:47.562Z,-6.33
2019-01-21T19:41:52.795Z,-6.39
2019-01-21T19:44:58.029Z,-6.40
2019-01-21T19:48:03.289Z,-6.46
2019-01-21T19:51:08.711Z,-6.46
2019-01-21T19:54:14.065Z,-6.49
2019-01-21T19:57:19.299Z,-6.42
2019-01-21T20:00:24.864Z,-6.39
2019-01-21T20:03:30.151Z,-6.31
2019-01-21T20:06:35.279Z,-6.43
2019-01-21T20:09:40.532Z,-6.38
2019-01-21T20:12:45.779Z,-6.58
2019-01-21T20:15:50.957Z,-6.74
2019-01-21T20:18:56.155Z,-6.79
2019-01-21T20:22:07.031Z,-6.82
2019-01-21T20:25:09.432Z,-6.75
2019-01-21T20:28:14.592Z,-6.91
2019-01-21T20:31:21.305Z,-6.98
2019-01-21T20:34:26.617Z,-7.07
2019-01-21T20:37:31.867Z,-7.12
2019-01-21T20:40:37.185Z,-7.21
2019-01-21T20:43:42.340Z,-7.17
2019-01-21T20:46:47.587Z,-6.96
2019-01-21T20:49:52.870Z,-6.76
2019-01-21T20:52:58.098Z,-6.96
2019-01-21T20:56:03.270Z,-7.01
2019-01-21T20:59:08.541Z,-7.02
2019-01-21T21:02:13.729Z,-7.03
2019-01-21T21:05:18.990Z,-7.03
2019-01-21T21:08:24.163Z,-6.98
2019-01-21T21:11:29.439Z,-7.08
2019-01-21T21:14:34.620Z,-6.95
2019-01-21T21:17:39.927Z,-7.10
2019-01-21T21:20:45.906Z,-7.24
2019-01-21T21:23:51.129Z,-7.24
2019-01-21T21:26:56.383Z,-7.19
2019-01-21T21:30:01.699Z,-7.30
2019-01-21T21:33:08.121Z,-7.42
2019-01-21T21:36:13.265Z,-7.39
2019-01-21T21:39:18.481Z,-7.28
2019-01-21T21:42:23.661Z,-7.15
2019-01-21T21:45:28.916Z,-7.13
2019-01-21T21:48:34.175Z,-7.21
2019-01-21T21:51:39.396Z,-7.21
2019-01-21T21:54:44.597Z,-7.28
2019-01-21T21:57:49.722Z,-7.22
2019-01-21T22:00:55.423Z,-7.08
2019-01-21T22:04:00.703Z,-7.07
2019-01-21T22:07:06.119Z,-7.38
2019-01-21T22:10:19.615Z,-7.60
2019-01-21T22:13:22.522Z,-7.65
2019-01-21T22:16:27.970Z,-7.53
2019-01-21T22:19:33.278Z,-7.47
2019-01-21T22:22:38.465Z,-7.54
2019-01-21T22:25:43.780Z,-7.51
2019-01-21T22:28:48.921Z,-7.56
2019-01-21T22:31:54.067Z,-7.58
2019-01-21T22:34:59.538Z,-7.58
2019-01-21T22:38:04.704Z,-7.49
2019-01-21T22:41:09.834Z,-7.53
2019-01-21T22:44:15.030Z,-7.58
2019-01-21T22:47:20.248Z,-7.75
2019-01-21T22:50:25.406Z,-7.77
2019-01-21T22:53:30.587Z,-7.69
2019-01-21T22:56:35.708Z,-7.87
2019-01-21T22:59:40.799Z,-7.62
2019-01-21T23:02:45.970Z,-7.53
2019-01-21T23:05:51.089Z,-7.71
2019-01-21T23:08:56.473Z,-8.05
2019-01-21T23:12:01.605Z,-8.18
2019-01-21T23:15:07.359Z,-8.13
2019-01-21T23:18:12.706Z,-8.29
2019-01-21T23:21:19.415Z,-8.36
2019-01-21T23:24:24.605Z,-8.13
2019-01-21T23:27:29.766Z,-8.17
2019-01-21T23:30:35.080Z,-8.23
2019-01-21T23:33:40.190Z,-8.24
2019-01-21T23:36:45.367Z,-8.25
2019-01-21T23:39:51.510Z,-8.26
2019-01-21T23:42:56.667Z,-8.32
2019-01-21T23:46:01.834Z,-8.31
2019-01-21T23:49:07.005Z,-8.06
2019-01-21T23:52:12.225Z,-8.09
2019-01-21T23:55:17.330Z,-8.13
2019-01-21T23:58:22.499Z,-8.11
